sensor_id;sensor_type;location;lat;lon;timestamp;P1;durP1;ratioP1;P2;durP2;ratioP2
42066;SDS011;27734;47.028;28.820;2022-12-18T00:01:59;24.17;;;11.50;;
42066;SDS011;27734;47.028;28.820;2022-12-18T00:04:31;27.93;;;12.33;;
42066;SDS011;27734;47.028;28.820;2022-12-18T00:07:02;25.43;;;10.70;;
42066;SDS011;27734;47.028;28.820;2022-12-18T00:09:33;28.50;;;12.03;;
42066;SDS011;27734;47.028;28.820;2022-12-18T00:12:05;26.20;;;11.57;;
42066;SDS011;27734;47.028;28.820;2022-12-18T00:14:37;28.13;;;12.63;;
42066;SDS011;27734;47.028;28.820;2022-12-18T00:17:08;27.37;;;12.57;;
42066;SDS011;27734;47.028;28.820;2022-12-18T00:19:39;26.23;;;12.83;;
42066;SDS011;27734;47.028;28.820;2022-12-18T00:22:10;29.20;;;12.97;;
42066;SDS011;27734;47.028;28.820;2022-12-18T00:24:41;28.63;;;13.07;;
42066;SDS011;27734;47.028;28.820;2022-12-18T00:27:12;29.50;;;11.93;;
42066;SDS011;27734;47.028;28.820;2022-12-18T00:29:43;30.10;;;13.00;;
42066;SDS011;27734;47.028;28.820;2022-12-18T00:32:15;29.80;;;12.43;;
42066;SDS011;27734;47.028;28.820;2022-12-18T00:34:46;32.30;;;13.53;;
42066;SDS011;27734;47.028;28.820;2022-12-18T00:37:17;28.60;;;13.10;;
42066;SDS011;27734;47.028;28.820;2022-12-18T00:39:52;29.73;;;13.97;;
42066;SDS011;27734;47.028;28.820;2022-12-18T00:42:23;30.40;;;13.83;;
42066;SDS011;27734;47.028;28.820;2022-12-18T00:45:12;29.57;;;13.90;;
42066;SDS011;27734;47.028;28.820;2022-12-18T00:47:43;33.30;;;14.63;;
42066;SDS011;27734;47.028;28.820;2022-12-18T00:50:14;32.63;;;15.03;;
42066;SDS011;27734;47.028;28.820;2022-12-18T00:52:46;34.00;;;14.90;;
42066;SDS011;27734;47.028;28.820;2022-12-18T00:55:17;32.80;;;13.83;;
42066;SDS011;27734;47.028;28.820;2022-12-18T00:57:49;29.33;;;13.23;;
42066;SDS011;27734;47.028;28.820;2022-12-18T01:00:21;33.03;;;15.40;;
42066;SDS011;27734;47.028;28.820;2022-12-18T01:02:53;30.17;;;13.97;;
42066;SDS011;27734;47.028;28.820;2022-12-18T01:05:24;35.27;;;14.40;;
42066;SDS011;27734;47.028;28.820;2022-12-18T01:07:56;33.30;;;14.10;;
42066;SDS011;27734;47.028;28.820;2022-12-18T01:10:27;33.93;;;15.07;;
42066;SDS011;27734;47.028;28.820;2022-12-18T01:12:59;32.90;;;15.33;;
42066;SDS011;27734;47.028;28.820;2022-12-18T01:15:30;32.83;;;16.83;;
42066;SDS011;27734;47.028;28.820;2022-12-18T01:18:01;33.37;;;15.17;;
42066;SDS011;27734;47.028;28.820;2022-12-18T01:20:32;33.57;;;15.50;;
42066;SDS011;27734;47.028;28.820;2022-12-18T01:23:03;34.67;;;14.93;;
42066;SDS011;27734;47.028;28.820;2022-12-18T01:25:36;37.67;;;16.83;;
42066;SDS011;27734;47.028;28.820;2022-12-18T01:28:11;36.05;;;16.70;;
42066;SDS011;27734;47.028;28.820;2022-12-18T01:30:42;36.30;;;15.35;;
42066;SDS011;27734;47.028;28.820;2022-12-18T01:33:14;35.70;;;16.23;;
42066;SDS011;27734;47.028;28.820;2022-12-18T01:35:45;38.43;;;15.73;;
42066;SDS011;27734;47.028;28.820;2022-12-18T01:38:16;36.17;;;17.37;;
42066;SDS011;27734;47.028;28.820;2022-12-18T01:40:47;36.40;;;15.37;;
42066;SDS011;27734;47.028;28.820;2022-12-18T01:46:14;35.97;;;16.57;;
42066;SDS011;27734;47.028;28.820;2022-12-18T01:48:47;35.33;;;16.27;;
42066;SDS011;27734;47.028;28.820;2022-12-18T01:51:20;35.35;;;16.25;;
42066;SDS011;27734;47.028;28.820;2022-12-18T01:53:51;37.00;;;16.60;;
42066;SDS011;27734;47.028;28.820;2022-12-18T01:56:23;41.50;;;17.90;;
42066;SDS011;27734;47.028;28.820;2022-12-18T01:58:55;34.70;;;15.50;;
42066;SDS011;27734;47.028;28.820;2022-12-18T02:01:30;36.07;;;16.60;;
42066;SDS011;27734;47.028;28.820;2022-12-18T02:04:16;36.13;;;15.07;;
42066;SDS011;27734;47.028;28.820;2022-12-18T02:06:52;37.43;;;16.63;;
42066;SDS011;27734;47.028;28.820;2022-12-18T02:09:32;40.53;;;17.43;;
42066;SDS011;27734;47.028;28.820;2022-12-18T02:12:10;38.13;;;16.03;;
42066;SDS011;27734;47.028;28.820;2022-12-18T02:14:49;39.27;;;16.60;;
42066;SDS011;27734;47.028;28.820;2022-12-18T02:17:29;35.93;;;15.27;;
42066;SDS011;27734;47.028;28.820;2022-12-18T02:20:08;37.63;;;16.53;;
42066;SDS011;27734;47.028;28.820;2022-12-18T02:22:48;34.43;;;15.23;;
42066;SDS011;27734;47.028;28.820;2022-12-18T02:28:08;40.07;;;17.37;;
42066;SDS011;27734;47.028;28.820;2022-12-18T02:30:44;36.40;;;16.50;;
42066;SDS011;27734;47.028;28.820;2022-12-18T02:33:17;40.40;;;18.50;;
42066;SDS011;27734;47.028;28.820;2022-12-18T02:35:50;38.17;;;16.65;;
42066;SDS011;27734;47.028;28.820;2022-12-18T02:38:25;38.37;;;16.83;;
42066;SDS011;27734;47.028;28.820;2022-12-18T02:41:00;40.17;;;18.40;;
42066;SDS011;27734;47.028;28.820;2022-12-18T02:43:33;39.63;;;16.80;;
42066;SDS011;27734;47.028;28.820;2022-12-18T02:48:57;37.87;;;17.77;;
42066;SDS011;27734;47.028;28.820;2022-12-18T02:51:37;42.00;;;18.37;;
42066;SDS011;27734;47.028;28.820;2022-12-18T02:54:18;40.43;;;17.23;;
42066;SDS011;27734;47.028;28.820;2022-12-18T02:56:57;38.07;;;15.90;;
42066;SDS011;27734;47.028;28.820;2022-12-18T02:59:36;41.67;;;18.70;;
42066;SDS011;27734;47.028;28.820;2022-12-18T03:02:17;41.53;;;17.20;;
42066;SDS011;27734;47.028;28.820;2022-12-18T03:04:57;37.77;;;16.83;;
42066;SDS011;27734;47.028;28.820;2022-12-18T03:07:36;40.45;;;17.55;;
42066;SDS011;27734;47.028;28.820;2022-12-18T03:10:13;40.67;;;18.53;;
42066;SDS011;27734;47.028;28.820;2022-12-18T03:12:50;42.60;;;18.40;;
42066;SDS011;27734;47.028;28.820;2022-12-18T03:15:27;42.17;;;18.03;;
42066;SDS011;27734;47.028;28.820;2022-12-18T03:18:10;42.80;;;18.00;;
42066;SDS011;27734;47.028;28.820;2022-12-18T03:20:47;39.13;;;17.00;;
42066;SDS011;27734;47.028;28.820;2022-12-18T03:23:22;39.40;;;17.67;;
42066;SDS011;27734;47.028;28.820;2022-12-18T03:25:57;40.40;;;16.07;;
42066;SDS011;27734;47.028;28.820;2022-12-18T03:28:31;43.03;;;19.17;;
42066;SDS011;27734;47.028;28.820;2022-12-18T03:31:09;44.30;;;18.40;;
42066;SDS011;27734;47.028;28.820;2022-12-18T03:33:43;40.63;;;17.47;;
42066;SDS011;27734;47.028;28.820;2022-12-18T03:36:20;36.50;;;17.07;;
42066;SDS011;27734;47.028;28.820;2022-12-18T03:38:52;40.63;;;17.87;;
42066;SDS011;27734;47.028;28.820;2022-12-18T03:41:25;42.23;;;19.43;;
42066;SDS011;27734;47.028;28.820;2022-12-18T03:44:19;45.60;;;18.40;;
42066;SDS011;27734;47.028;28.820;2022-12-18T03:46:58;39.43;;;17.97;;
42066;SDS011;27734;47.028;28.820;2022-12-18T03:49:36;42.43;;;19.60;;
42066;SDS011;27734;47.028;28.820;2022-12-18T03:52:30;43.30;;;19.40;;
42066;SDS011;27734;47.028;28.820;2022-12-18T03:55:06;41.90;;;19.85;;
42066;SDS011;27734;47.028;28.820;2022-12-18T03:57:39;42.20;;;19.30;;
42066;SDS011;27734;47.028;28.820;2022-12-18T04:00:13;46.27;;;21.20;;
42066;SDS011;27734;47.028;28.820;2022-12-18T04:02:59;44.97;;;20.47;;
42066;SDS011;27734;47.028;28.820;2022-12-18T04:05:38;45.23;;;20.23;;
42066;SDS011;27734;47.028;28.820;2022-12-18T04:08:12;45.67;;;19.62;;
42066;SDS011;27734;47.028;28.820;2022-12-18T04:10:46;46.80;;;20.33;;
42066;SDS011;27734;47.028;28.820;2022-12-18T04:13:22;48.13;;;20.90;;
42066;SDS011;27734;47.028;28.820;2022-12-18T04:15:58;45.20;;;20.25;;
42066;SDS011;27734;47.028;28.820;2022-12-18T04:18:29;49.53;;;21.83;;
42066;SDS011;27734;47.028;28.820;2022-12-18T04:21:01;50.80;;;21.57;;
42066;SDS011;27734;47.028;28.820;2022-12-18T04:23:32;45.07;;;20.67;;
42066;SDS011;27734;47.028;28.820;2022-12-18T04:26:04;42.53;;;19.87;;
42066;SDS011;27734;47.028;28.820;2022-12-18T04:28:46;42.57;;;17.80;;
42066;SDS011;27734;47.028;28.820;2022-12-18T04:31:17;42.83;;;19.00;;
42066;SDS011;27734;47.028;28.820;2022-12-18T04:33:48;44.03;;;19.37;;
42066;SDS011;27734;47.028;28.820;2022-12-18T04:36:20;43.07;;;19.70;;
42066;SDS011;27734;47.028;28.820;2022-12-18T04:38:54;41.17;;;19.33;;
42066;SDS011;27734;47.028;28.820;2022-12-18T04:41:25;42.65;;;19.35;;
42066;SDS011;27734;47.028;28.820;2022-12-18T04:43:57;40.17;;;17.80;;
42066;SDS011;27734;47.028;28.820;2022-12-18T04:46:28;41.40;;;17.70;;
42066;SDS011;27734;47.028;28.820;2022-12-18T04:48:59;39.77;;;18.43;;
42066;SDS011;27734;47.028;28.820;2022-12-18T04:51:30;39.43;;;18.00;;
42066;SDS011;27734;47.028;28.820;2022-12-18T04:54:01;38.33;;;17.40;;
42066;SDS011;27734;47.028;28.820;2022-12-18T04:56:32;37.87;;;16.23;;
42066;SDS011;27734;47.028;28.820;2022-12-18T04:59:03;36.93;;;15.97;;
42066;SDS011;27734;47.028;28.820;2022-12-18T05:01:34;39.10;;;17.50;;
42066;SDS011;27734;47.028;28.820;2022-12-18T05:04:05;35.23;;;16.13;;
42066;SDS011;27734;47.028;28.820;2022-12-18T05:06:37;39.87;;;17.97;;
42066;SDS011;27734;47.028;28.820;2022-12-18T05:09:08;39.05;;;17.65;;
42066;SDS011;27734;47.028;28.820;2022-12-18T05:11:39;42.27;;;17.00;;
42066;SDS011;27734;47.028;28.820;2022-12-18T05:14:10;36.53;;;13.83;;
42066;SDS011;27734;47.028;28.820;2022-12-18T05:16:41;37.97;;;15.33;;
42066;SDS011;27734;47.028;28.820;2022-12-18T05:19:12;35.00;;;16.27;;
42066;SDS011;27734;47.028;28.820;2022-12-18T05:21:43;35.53;;;15.40;;
42066;SDS011;27734;47.028;28.820;2022-12-18T05:24:15;33.50;;;14.20;;
42066;SDS011;27734;47.028;28.820;2022-12-18T05:26:46;35.90;;;14.75;;
42066;SDS011;27734;47.028;28.820;2022-12-18T05:29:17;33.47;;;14.33;;
42066;SDS011;27734;47.028;28.820;2022-12-18T05:31:48;32.77;;;14.50;;
42066;SDS011;27734;47.028;28.820;2022-12-18T05:34:19;36.57;;;16.17;;
42066;SDS011;27734;47.028;28.820;2022-12-18T05:36:51;34.00;;;14.80;;
42066;SDS011;27734;47.028;28.820;2022-12-18T05:39:22;33.93;;;15.80;;
42066;SDS011;27734;47.028;28.820;2022-12-18T05:41:53;34.90;;;14.93;;
42066;SDS011;27734;47.028;28.820;2022-12-18T05:44:24;34.77;;;15.67;;
42066;SDS011;27734;47.028;28.820;2022-12-18T05:46:55;31.93;;;12.40;;
42066;SDS011;27734;47.028;28.820;2022-12-18T05:49:26;31.37;;;11.23;;
42066;SDS011;27734;47.028;28.820;2022-12-18T05:51:57;33.87;;;14.63;;
42066;SDS011;27734;47.028;28.820;2022-12-18T05:54:29;33.37;;;13.67;;
42066;SDS011;27734;47.028;28.820;2022-12-18T05:57:00;32.13;;;14.53;;
42066;SDS011;27734;47.028;28.820;2022-12-18T05:59:31;33.77;;;14.13;;
42066;SDS011;27734;47.028;28.820;2022-12-18T06:02:02;30.60;;;12.17;;
42066;SDS011;27734;47.028;28.820;2022-12-18T06:04:33;32.70;;;13.87;;
42066;SDS011;27734;47.028;28.820;2022-12-18T06:07:04;27.30;;;11.60;;
42066;SDS011;27734;47.028;28.820;2022-12-18T06:09:36;32.40;;;14.23;;
42066;SDS011;27734;47.028;28.820;2022-12-18T06:12:07;31.60;;;12.85;;
42066;SDS011;27734;47.028;28.820;2022-12-18T06:14:38;30.43;;;10.90;;
42066;SDS011;27734;47.028;28.820;2022-12-18T06:17:09;32.27;;;12.93;;
42066;SDS011;27734;47.028;28.820;2022-12-18T06:19:40;35.80;;;14.97;;
42066;SDS011;27734;47.028;28.820;2022-12-18T06:22:12;33.40;;;14.07;;
42066;SDS011;27734;47.028;28.820;2022-12-18T06:24:43;34.50;;;14.90;;
42066;SDS011;27734;47.028;28.820;2022-12-18T06:27:14;36.10;;;14.43;;
42066;SDS011;27734;47.028;28.820;2022-12-18T06:29:45;39.17;;;15.20;;
42066;SDS011;27734;47.028;28.820;2022-12-18T06:32:16;35.53;;;15.63;;
42066;SDS011;27734;47.028;28.820;2022-12-18T06:34:47;35.17;;;16.10;;
42066;SDS011;27734;47.028;28.820;2022-12-18T06:37:18;37.23;;;14.80;;
42066;SDS011;27734;47.028;28.820;2022-12-18T06:39:52;34.40;;;14.53;;
42066;SDS011;27734;47.028;28.820;2022-12-18T06:42:24;35.70;;;15.10;;
42066;SDS011;27734;47.028;28.820;2022-12-18T06:44:55;34.20;;;14.30;;
42066;SDS011;27734;47.028;28.820;2022-12-18T06:47:26;37.27;;;15.00;;
42066;SDS011;27734;47.028;28.820;2022-12-18T06:49:58;28.00;;;12.15;;
42066;SDS011;27734;47.028;28.820;2022-12-18T06:52:29;25.93;;;11.23;;
42066;SDS011;27734;47.028;28.820;2022-12-18T06:55:02;31.60;;;13.20;;
42066;SDS011;27734;47.028;28.820;2022-12-18T06:57:34;32.85;;;13.85;;
42066;SDS011;27734;47.028;28.820;2022-12-18T07:00:06;30.57;;;13.33;;
42066;SDS011;27734;47.028;28.820;2022-12-18T07:02:38;32.83;;;13.67;;
42066;SDS011;27734;47.028;28.820;2022-12-18T07:05:10;34.73;;;13.50;;
42066;SDS011;27734;47.028;28.820;2022-12-18T07:07:41;30.23;;;12.90;;
42066;SDS011;27734;47.028;28.820;2022-12-18T07:10:12;30.57;;;12.80;;
42066;SDS011;27734;47.028;28.820;2022-12-18T07:12:43;29.47;;;12.80;;
42066;SDS011;27734;47.028;28.820;2022-12-18T07:15:15;30.13;;;13.33;;
42066;SDS011;27734;47.028;28.820;2022-12-18T07:17:46;33.23;;;14.73;;
42066;SDS011;27734;47.028;28.820;2022-12-18T07:20:17;33.87;;;14.57;;
42066;SDS011;27734;47.028;28.820;2022-12-18T07:22:48;32.67;;;15.10;;
42066;SDS011;27734;47.028;28.820;2022-12-18T07:25:22;33.30;;;14.43;;
42066;SDS011;27734;47.028;28.820;2022-12-18T07:27:53;32.87;;;12.50;;
42066;SDS011;27734;47.028;28.820;2022-12-18T07:30:24;32.40;;;14.10;;
42066;SDS011;27734;47.028;28.820;2022-12-18T07:32:56;31.75;;;13.80;;
42066;SDS011;27734;47.028;28.820;2022-12-18T07:35:27;34.23;;;15.27;;
42066;SDS011;27734;47.028;28.820;2022-12-18T07:37:58;30.80;;;13.00;;
42066;SDS011;27734;47.028;28.820;2022-12-18T07:40:29;32.17;;;14.63;;
42066;SDS011;27734;47.028;28.820;2022-12-18T07:43:00;35.10;;;15.27;;
42066;SDS011;27734;47.028;28.820;2022-12-18T07:45:31;36.90;;;14.70;;
42066;SDS011;27734;47.028;28.820;2022-12-18T07:48:02;32.10;;;14.90;;
42066;SDS011;27734;47.028;28.820;2022-12-18T07:50:34;33.60;;;14.40;;
42066;SDS011;27734;47.028;28.820;2022-12-18T07:53:05;37.13;;;15.63;;
42066;SDS011;27734;47.028;28.820;2022-12-18T07:55:37;36.47;;;15.50;;
42066;SDS011;27734;47.028;28.820;2022-12-18T07:58:09;35.07;;;14.97;;
42066;SDS011;27734;47.028;28.820;2022-12-18T08:00:41;35.63;;;15.70;;
42066;SDS011;27734;47.028;28.820;2022-12-18T08:03:12;35.43;;;15.13;;
42066;SDS011;27734;47.028;28.820;2022-12-18T08:05:43;35.23;;;15.63;;
42066;SDS011;27734;47.028;28.820;2022-12-18T08:08:14;34.25;;;16.50;;
42066;SDS011;27734;47.028;28.820;2022-12-18T08:10:45;34.07;;;15.97;;
42066;SDS011;27734;47.028;28.820;2022-12-18T08:13:16;36.03;;;16.00;;
42066;SDS011;27734;47.028;28.820;2022-12-18T08:15:48;35.63;;;15.10;;
42066;SDS011;27734;47.028;28.820;2022-12-18T08:18:27;36.20;;;14.83;;
42066;SDS011;27734;47.028;28.820;2022-12-18T08:21:02;35.17;;;15.40;;
42066;SDS011;27734;47.028;28.820;2022-12-18T08:23:38;36.77;;;15.37;;
42066;SDS011;27734;47.028;28.820;2022-12-18T08:26:10;39.43;;;17.73;;
42066;SDS011;27734;47.028;28.820;2022-12-18T08:28:41;38.00;;;16.60;;
42066;SDS011;27734;47.028;28.820;2022-12-18T08:31:12;39.40;;;17.33;;
42066;SDS011;27734;47.028;28.820;2022-12-18T08:33:44;38.77;;;15.50;;
42066;SDS011;27734;47.028;28.820;2022-12-18T08:36:17;39.97;;;17.77;;
42066;SDS011;27734;47.028;28.820;2022-12-18T08:38:48;40.60;;;16.80;;
42066;SDS011;27734;47.028;28.820;2022-12-18T08:41:20;38.77;;;17.57;;
42066;SDS011;27734;47.028;28.820;2022-12-18T08:43:51;39.27;;;16.90;;
42066;SDS011;27734;47.028;28.820;2022-12-18T08:46:41;40.63;;;16.43;;
42066;SDS011;27734;47.028;28.820;2022-12-18T08:49:13;42.97;;;17.97;;
42066;SDS011;27734;47.028;28.820;2022-12-18T08:51:44;40.03;;;18.03;;
42066;SDS011;27734;47.028;28.820;2022-12-18T08:54:15;45.25;;;19.50;;
42066;SDS011;27734;47.028;28.820;2022-12-18T08:56:46;43.30;;;18.63;;
42066;SDS011;27734;47.028;28.820;2022-12-18T08:59:18;43.50;;;19.33;;
42066;SDS011;27734;47.028;28.820;2022-12-18T09:01:49;46.03;;;19.83;;
42066;SDS011;27734;47.028;28.820;2022-12-18T09:04:22;45.10;;;19.07;;
42066;SDS011;27734;47.028;28.820;2022-12-18T09:06:53;43.23;;;18.33;;
42066;SDS011;27734;47.028;28.820;2022-12-18T09:09:24;43.17;;;18.97;;
42066;SDS011;27734;47.028;28.820;2022-12-18T09:11:56;45.03;;;20.40;;
42066;SDS011;27734;47.028;28.820;2022-12-18T09:14:27;44.20;;;20.13;;
42066;SDS011;27734;47.028;28.820;2022-12-18T09:16:58;49.07;;;18.83;;
42066;SDS011;27734;47.028;28.820;2022-12-18T09:19:29;47.40;;;21.10;;
42066;SDS011;27734;47.028;28.820;2022-12-18T09:22:00;42.83;;;19.63;;
42066;SDS011;27734;47.028;28.820;2022-12-18T09:24:31;45.17;;;20.73;;
42066;SDS011;27734;47.028;28.820;2022-12-18T09:27:03;45.87;;;19.70;;
42066;SDS011;27734;47.028;28.820;2022-12-18T09:29:34;43.85;;;20.10;;
42066;SDS011;27734;47.028;28.820;2022-12-18T09:32:05;45.97;;;18.80;;
42066;SDS011;27734;47.028;28.820;2022-12-18T09:34:36;45.10;;;18.73;;
42066;SDS011;27734;47.028;28.820;2022-12-18T09:37:07;44.83;;;20.13;;
42066;SDS011;27734;47.028;28.820;2022-12-18T09:39:39;42.47;;;19.53;;
42066;SDS011;27734;47.028;28.820;2022-12-18T09:42:10;40.77;;;17.63;;
42066;SDS011;27734;47.028;28.820;2022-12-18T09:44:48;40.67;;;18.03;;
42066;SDS011;27734;47.028;28.820;2022-12-18T09:47:23;41.13;;;17.60;;
42066;SDS011;27734;47.028;28.820;2022-12-18T09:49:58;40.27;;;17.77;;
42066;SDS011;27734;47.028;28.820;2022-12-18T09:55:03;33.27;;;14.00;;
42066;SDS011;27734;47.028;28.820;2022-12-18T09:57:42;32.20;;;13.63;;
42066;SDS011;27734;47.028;28.820;2022-12-18T10:00:19;41.60;;;15.47;;
42066;SDS011;27734;47.028;28.820;2022-12-18T10:02:52;38.30;;;15.65;;
42066;SDS011;27734;47.028;28.820;2022-12-18T10:05:30;38.63;;;16.17;;
42066;SDS011;27734;47.028;28.820;2022-12-18T10:08:07;33.20;;;14.10;;
42066;SDS011;27734;47.028;28.820;2022-12-18T10:10:44;37.23;;;15.40;;
42066;SDS011;27734;47.028;28.820;2022-12-18T10:13:22;37.80;;;15.80;;
42066;SDS011;27734;47.028;28.820;2022-12-18T10:16:07;38.37;;;15.90;;
42066;SDS011;27734;47.028;28.820;2022-12-18T10:18:50;33.67;;;13.87;;
42066;SDS011;27734;47.028;28.820;2022-12-18T10:21:32;34.00;;;14.10;;
42066;SDS011;27734;47.028;28.820;2022-12-18T10:24:12;38.17;;;15.10;;
42066;SDS011;27734;47.028;28.820;2022-12-18T10:26:51;37.33;;;15.23;;
42066;SDS011;27734;47.028;28.820;2022-12-18T10:29:25;35.17;;;13.73;;
42066;SDS011;27734;47.028;28.820;2022-12-18T10:31:57;40.07;;;15.27;;
42066;SDS011;27734;47.028;28.820;2022-12-18T10:34:28;36.03;;;14.23;;
42066;SDS011;27734;47.028;28.820;2022-12-18T10:37:01;33.47;;;12.50;;
42066;SDS011;27734;47.028;28.820;2022-12-18T10:39:43;38.53;;;13.35;;
42066;SDS011;27734;47.028;28.820;2022-12-18T10:42:17;37.33;;;16.57;;
42066;SDS011;27734;47.028;28.820;2022-12-18T10:44:50;39.37;;;16.93;;
42066;SDS011;27734;47.028;28.820;2022-12-18T10:47:33;39.57;;;16.00;;
42066;SDS011;27734;47.028;28.820;2022-12-18T10:50:10;40.53;;;16.63;;
42066;SDS011;27734;47.028;28.820;2022-12-18T10:52:55;38.43;;;15.33;;
42066;SDS011;27734;47.028;28.820;2022-12-18T10:55:30;34.97;;;14.00;;
42066;SDS011;27734;47.028;28.820;2022-12-18T10:58:24;33.87;;;13.87;;
42066;SDS011;27734;47.028;28.820;2022-12-18T11:03:59;40.00;;;15.97;;
42066;SDS011;27734;47.028;28.820;2022-12-18T11:06:36;40.23;;;16.73;;
42066;SDS011;27734;47.028;28.820;2022-12-18T11:09:25;42.70;;;17.77;;
42066;SDS011;27734;47.028;28.820;2022-12-18T11:11:58;47.13;;;19.37;;
42066;SDS011;27734;47.028;28.820;2022-12-18T11:14:31;43.53;;;18.40;;
42066;SDS011;27734;47.028;28.820;2022-12-18T11:17:18;44.80;;;18.27;;
42066;SDS011;27734;47.028;28.820;2022-12-18T11:20:01;44.43;;;19.13;;
42066;SDS011;27734;47.028;28.820;2022-12-18T11:22:35;37.23;;;15.43;;
42066;SDS011;27734;47.028;28.820;2022-12-18T11:25:18;47.33;;;19.83;;
42066;SDS011;27734;47.028;28.820;2022-12-18T11:27:50;44.00;;;18.05;;
42066;SDS011;27734;47.028;28.820;2022-12-18T11:30:25;36.90;;;14.13;;
42066;SDS011;27734;47.028;28.820;2022-12-18T11:35:35;35.57;;;16.17;;
42066;SDS011;27734;47.028;28.820;2022-12-18T11:38:20;32.65;;;13.05;;
42066;SDS011;27734;47.028;28.820;2022-12-18T11:40:55;33.40;;;13.57;;
42066;SDS011;27734;47.028;28.820;2022-12-18T11:43:29;33.35;;;14.15;;
42066;SDS011;27734;47.028;28.820;2022-12-18T11:46:05;29.73;;;13.10;;
42066;SDS011;27734;47.028;28.820;2022-12-18T11:48:41;27.53;;;11.67;;
42066;SDS011;27734;47.028;28.820;2022-12-18T11:51:20;27.40;;;11.27;;
42066;SDS011;27734;47.028;28.820;2022-12-18T11:53:57;31.20;;;11.70;;
42066;SDS011;27734;47.028;28.820;2022-12-18T11:56:30;29.93;;;10.57;;
42066;SDS011;27734;47.028;28.820;2022-12-18T11:59:07;26.33;;;11.27;;
42066;SDS011;27734;47.028;28.820;2022-12-18T12:01:48;24.27;;;9.70;;
42066;SDS011;27734;47.028;28.820;2022-12-18T12:04:30;24.97;;;9.10;;
42066;SDS011;27734;47.028;28.820;2022-12-18T12:07:17;22.73;;;9.30;;
42066;SDS011;27734;47.028;28.820;2022-12-18T12:10:03;23.77;;;9.67;;
42066;SDS011;27734;47.028;28.820;2022-12-18T12:12:44;24.60;;;9.30;;
42066;SDS011;27734;47.028;28.820;2022-12-18T12:15:31;23.60;;;8.90;;
42066;SDS011;27734;47.028;28.820;2022-12-18T12:18:13;23.30;;;9.57;;
42066;SDS011;27734;47.028;28.820;2022-12-18T12:20:53;24.20;;;9.53;;
42066;SDS011;27734;47.028;28.820;2022-12-18T12:23:34;26.90;;;10.00;;
42066;SDS011;27734;47.028;28.820;2022-12-18T12:26:16;22.30;;;7.37;;
42066;SDS011;27734;47.028;28.820;2022-12-18T12:29:01;23.87;;;9.00;;
42066;SDS011;27734;47.028;28.820;2022-12-18T12:31:47;21.43;;;7.67;;
42066;SDS011;27734;47.028;28.820;2022-12-18T12:34:30;21.23;;;7.80;;
42066;SDS011;27734;47.028;28.820;2022-12-18T12:37:11;21.80;;;8.45;;
42066;SDS011;27734;47.028;28.820;2022-12-18T12:39:54;20.17;;;7.57;;
42066;SDS011;27734;47.028;28.820;2022-12-18T12:42:29;20.87;;;7.30;;
42066;SDS011;27734;47.028;28.820;2022-12-18T12:45:23;22.03;;;8.40;;
42066;SDS011;27734;47.028;28.820;2022-12-18T12:48:00;21.37;;;8.13;;
42066;SDS011;27734;47.028;28.820;2022-12-18T12:50:34;20.33;;;7.67;;
42066;SDS011;27734;47.028;28.820;2022-12-18T12:53:07;18.80;;;6.57;;
42066;SDS011;27734;47.028;28.820;2022-12-18T12:55:45;18.50;;;6.50;;
42066;SDS011;27734;47.028;28.820;2022-12-18T12:58:17;16.23;;;4.70;;
42066;SDS011;27734;47.028;28.820;2022-12-18T13:00:57;24.77;;;8.50;;
42066;SDS011;27734;47.028;28.820;2022-12-18T13:03:41;23.47;;;8.53;;
42066;SDS011;27734;47.028;28.820;2022-12-18T13:06:18;17.27;;;6.37;;
42066;SDS011;27734;47.028;28.820;2022-12-18T13:08:58;22.47;;;8.13;;
42066;SDS011;27734;47.028;28.820;2022-12-18T13:11:34;22.37;;;7.10;;
42066;SDS011;27734;47.028;28.820;2022-12-18T13:14:28;18.77;;;7.50;;
42066;SDS011;27734;47.028;28.820;2022-12-18T13:20:11;18.93;;;7.80;;
42066;SDS011;27734;47.028;28.820;2022-12-18T13:22:44;17.37;;;6.27;;
42066;SDS011;27734;47.028;28.820;2022-12-18T13:25:33;17.00;;;6.55;;
42066;SDS011;27734;47.028;28.820;2022-12-18T13:28:09;19.03;;;6.87;;
42066;SDS011;27734;47.028;28.820;2022-12-18T13:30:43;18.97;;;6.63;;
42066;SDS011;27734;47.028;28.820;2022-12-18T13:33:36;20.53;;;6.67;;
42066;SDS011;27734;47.028;28.820;2022-12-18T13:36:16;19.80;;;7.37;;
42066;SDS011;27734;47.028;28.820;2022-12-18T13:41:54;19.20;;;6.75;;
42066;SDS011;27734;47.028;28.820;2022-12-18T13:45:43;16.30;;;6.00;;
42066;SDS011;27734;47.028;28.820;2022-12-18T13:48:21;19.20;;;6.63;;
42066;SDS011;27734;47.028;28.820;2022-12-18T13:50:57;20.53;;;6.63;;
42066;SDS011;27734;47.028;28.820;2022-12-18T13:53:32;18.13;;;6.50;;
42066;SDS011;27734;47.028;28.820;2022-12-18T13:56:07;19.27;;;7.17;;
42066;SDS011;27734;47.028;28.820;2022-12-18T13:58:38;20.80;;;6.83;;
42066;SDS011;27734;47.028;28.820;2022-12-18T14:01:16;18.77;;;6.33;;
42066;SDS011;27734;47.028;28.820;2022-12-18T14:03:53;16.93;;;7.10;;
42066;SDS011;27734;47.028;28.820;2022-12-18T14:06:41;17.30;;;6.77;;
42066;SDS011;27734;47.028;28.820;2022-12-18T14:09:16;18.47;;;6.43;;
42066;SDS011;27734;47.028;28.820;2022-12-18T14:11:53;12.93;;;5.20;;
42066;SDS011;27734;47.028;28.820;2022-12-18T14:14:47;17.97;;;6.90;;
42066;SDS011;27734;47.028;28.820;2022-12-18T14:17:20;21.53;;;6.80;;
42066;SDS011;27734;47.028;28.820;2022-12-18T14:19:52;24.53;;;6.57;;
42066;SDS011;27734;47.028;28.820;2022-12-18T14:22:24;19.90;;;6.87;;
42066;SDS011;27734;47.028;28.820;2022-12-18T14:25:13;17.40;;;6.80;;
42066;SDS011;27734;47.028;28.820;2022-12-18T14:27:47;15.57;;;5.60;;
42066;SDS011;27734;47.028;28.820;2022-12-18T14:30:24;18.05;;;6.30;;
42066;SDS011;27734;47.028;28.820;2022-12-18T14:33:05;20.80;;;6.30;;
42066;SDS011;27734;47.028;28.820;2022-12-18T14:35:39;18.63;;;6.37;;
42066;SDS011;27734;47.028;28.820;2022-12-18T14:38:19;18.23;;;6.63;;
42066;SDS011;27734;47.028;28.820;2022-12-18T14:40:53;19.27;;;6.27;;
42066;SDS011;27734;47.028;28.820;2022-12-18T14:43:29;19.53;;;6.87;;
42066;SDS011;27734;47.028;28.820;2022-12-18T14:46:01;21.30;;;6.90;;
42066;SDS011;27734;47.028;28.820;2022-12-18T14:48:36;21.77;;;7.37;;
42066;SDS011;27734;47.028;28.820;2022-12-18T14:51:15;17.43;;;6.30;;
42066;SDS011;27734;47.028;28.820;2022-12-18T14:53:47;19.67;;;7.13;;
42066;SDS011;27734;47.028;28.820;2022-12-18T14:56:23;19.87;;;7.30;;
42066;SDS011;27734;47.028;28.820;2022-12-18T14:58:56;21.97;;;7.57;;
42066;SDS011;27734;47.028;28.820;2022-12-18T15:01:29;22.90;;;7.70;;
42066;SDS011;27734;47.028;28.820;2022-12-18T15:04:03;24.53;;;8.93;;
42066;SDS011;27734;47.028;28.820;2022-12-18T15:07:03;20.83;;;7.40;;
42066;SDS011;27734;47.028;28.820;2022-12-18T15:09:39;20.97;;;7.53;;
42066;SDS011;27734;47.028;28.820;2022-12-18T15:12:22;21.53;;;8.10;;
42066;SDS011;27734;47.028;28.820;2022-12-18T15:15:02;22.87;;;8.17;;
42066;SDS011;27734;47.028;28.820;2022-12-18T15:17:57;20.90;;;8.00;;
42066;SDS011;27734;47.028;28.820;2022-12-18T15:20:39;23.77;;;8.83;;